sensor_id;sensor_type;location;lat;lon;timestamp;temperature;humidity
6054;DHT22;3055;50.886;14.814;2023-04-25T00:01:40;7.10;1.00
6054;DHT22;3055;50.886;14.814;2023-04-25T00:04:07;7.10;1.00
6054;DHT22;3055;50.886;14.814;2023-04-25T00:06:35;7.00;1.00
6054;DHT22;3055;50.886;14.814;2023-04-25T00:09:02;7.10;1.00
6054;DHT22;3055;50.886;14.814;2023-04-25T00:11:32;7.00;1.00
6054;DHT22;3055;50.886;14.814;2023-04-25T00:14:01;7.00;1.00
6054;DHT22;3055;50.886;14.814;2023-04-25T00:16:28;6.90;1.00
6054;DHT22;3055;50.886;14.814;2023-04-25T00:18:59;6.80;1.00
6054;DHT22;3055;50.886;14.814;2023-04-25T00:21:27;6.80;1.00
6054;DHT22;3055;50.886;14.814;2023-04-25T00:23:54;6.70;1.00
6054;DHT22;3055;50.886;14.814;2023-04-25T00:26:21;6.70;1.00
6054;DHT22;3055;50.886;14.814;2023-04-25T00:28:48;6.70;1.00
6054;DHT22;3055;50.886;14.814;2023-04-25T00:31:16;6.70;6.40
6054;DHT22;3055;50.886;14.814;2023-04-25T00:33:43;6.70;2.20
6054;DHT22;3055;50.886;14.814;2023-04-25T00:36:11;6.60;14.60
6054;DHT22;3055;50.886;14.814;2023-04-25T00:38:37;6.60;34.00
6054;DHT22;3055;50.886;14.814;2023-04-25T00:41:05;6.60;36.80
6054;DHT22;3055;50.886;14.814;2023-04-25T00:43:33;6.70;30.70
6054;DHT22;3055;50.886;14.814;2023-04-25T00:46:01;6.70;43.90
6054;DHT22;3055;50.886;14.814;2023-04-25T00:48:29;6.70;72.40
6054;DHT22;3055;50.886;14.814;2023-04-25T00:50:58;6.60;95.60
6054;DHT22;3055;50.886;14.814;2023-04-25T00:53:26;6.70;99.90
6054;DHT22;3055;50.886;14.814;2023-04-25T00:55:54;6.90;99.90
6054;DHT22;3055;50.886;14.814;2023-04-25T00:58:22;6.90;56.60
6054;DHT22;3055;50.886;14.814;2023-04-25T01:00:50;6.80;43.80
6054;DHT22;3055;50.886;14.814;2023-04-25T01:03:18;6.90;62.60
6054;DHT22;3055;50.886;14.814;2023-04-25T01:05:47;7.00;84.10
6054;DHT22;3055;50.886;14.814;2023-04-25T01:08:15;7.00;76.90
6054;DHT22;3055;50.886;14.814;2023-04-25T01:10:42;7.00;91.70
6054;DHT22;3055;50.886;14.814;2023-04-25T01:13:09;7.10;94.30
6054;DHT22;3055;50.886;14.814;2023-04-25T01:15:36;7.20;72.80
6054;DHT22;3055;50.886;14.814;2023-04-25T01:18:03;7.20;57.10
6054;DHT22;3055;50.886;14.814;2023-04-25T01:20:32;7.30;64.50
6054;DHT22;3055;50.886;14.814;2023-04-25T01:23:01;7.30;67.40
6054;DHT22;3055;50.886;14.814;2023-04-25T01:25:29;7.30;55.90
6054;DHT22;3055;50.886;14.814;2023-04-25T01:27:57;7.30;46.50
6054;DHT22;3055;50.886;14.814;2023-04-25T01:30:26;7.30;55.20
6054;DHT22;3055;50.886;14.814;2023-04-25T01:32:54;7.30;61.30
6054;DHT22;3055;50.886;14.814;2023-04-25T01:35:22;7.30;1.00
6054;DHT22;3055;50.886;14.814;2023-04-25T01:37:51;7.30;1.00
6054;DHT22;3055;50.886;14.814;2023-04-25T01:40:20;7.10;1.00
6054;DHT22;3055;50.886;14.814;2023-04-25T01:42:48;7.00;24.20
6054;DHT22;3055;50.886;14.814;2023-04-25T01:45:15;7.10;16.70
6054;DHT22;3055;50.886;14.814;2023-04-25T01:47:43;7.20;1.00
6054;DHT22;3055;50.886;14.814;2023-04-25T01:50:15;7.10;13.10
6054;DHT22;3055;50.886;14.814;2023-04-25T01:52:43;7.10;77.30
6054;DHT22;3055;50.886;14.814;2023-04-25T01:55:10;7.10;99.90
6054;DHT22;3055;50.886;14.814;2023-04-25T01:57:38;7.10;99.90
6054;DHT22;3055;50.886;14.814;2023-04-25T02:00:07;7.10;99.90
6054;DHT22;3055;50.886;14.814;2023-04-25T02:02:34;7.00;99.90
6054;DHT22;3055;50.886;14.814;2023-04-25T02:05:01;7.00;99.90
6054;DHT22;3055;50.886;14.814;2023-04-25T02:07:28;7.10;99.90
6054;DHT22;3055;50.886;14.814;2023-04-25T02:09:55;7.10;99.90
6054;DHT22;3055;50.886;14.814;2023-04-25T02:12:22;7.10;99.90
6054;DHT22;3055;50.886;14.814;2023-04-25T02:14:53;7.10;99.90
6054;DHT22;3055;50.886;14.814;2023-04-25T02:17:20;7.10;99.90
6054;DHT22;3055;50.886;14.814;2023-04-25T02:19:47;7.20;98.60
6054;DHT22;3055;50.886;14.814;2023-04-25T02:22:14;7.20;77.30
6054;DHT22;3055;50.886;14.814;2023-04-25T02:24:41;7.20;87.10
6054;DHT22;3055;50.886;14.814;2023-04-25T02:27:09;7.10;90.30
6054;DHT22;3055;50.886;14.814;2023-04-25T02:29:36;7.00;99.90
6054;DHT22;3055;50.886;14.814;2023-04-25T02:32:04;7.00;99.90
6054;DHT22;3055;50.886;14.814;2023-04-25T02:34:31;6.90;99.90
6054;DHT22;3055;50.886;14.814;2023-04-25T02:36:58;6.90;99.00
6054;DHT22;3055;50.886;14.814;2023-04-25T02:39:25;6.80;94.80
6054;DHT22;3055;50.886;14.814;2023-04-25T02:41:53;6.70;99.90
6054;DHT22;3055;50.886;14.814;2023-04-25T02:44:20;6.70;99.90
6054;DHT22;3055;50.886;14.814;2023-04-25T02:46:47;6.60;99.90
6054;DHT22;3055;50.886;14.814;2023-04-25T02:49:15;6.50;99.90
6054;DHT22;3055;50.886;14.814;2023-04-25T02:51:42;6.40;99.90
6054;DHT22;3055;50.886;14.814;2023-04-25T02:54:09;6.30;99.90
6054;DHT22;3055;50.886;14.814;2023-04-25T02:56:36;6.20;99.90
6054;DHT22;3055;50.886;14.814;2023-04-25T02:59:04;6.10;99.90
6054;DHT22;3055;50.886;14.814;2023-04-25T03:01:31;6.00;99.90
6054;DHT22;3055;50.886;14.814;2023-04-25T03:03:58;6.00;99.90
6054;DHT22;3055;50.886;14.814;2023-04-25T03:06:26;6.00;99.90
6054;DHT22;3055;50.886;14.814;2023-04-25T03:08:53;6.10;99.90
6054;DHT22;3055;50.886;14.814;2023-04-25T03:11:20;6.00;99.90
6054;DHT22;3055;50.886;14.814;2023-04-25T03:13:47;6.00;99.90
6054;DHT22;3055;50.886;14.814;2023-04-25T03:16:15;6.00;99.90
6054;DHT22;3055;50.886;14.814;2023-04-25T03:18:42;5.90;99.90
6054;DHT22;3055;50.886;14.814;2023-04-25T03:21:09;6.00;99.90
6054;DHT22;3055;50.886;14.814;2023-04-25T03:23:37;6.00;99.90
6054;DHT22;3055;50.886;14.814;2023-04-25T03:26:04;6.10;99.90
6054;DHT22;3055;50.886;14.814;2023-04-25T03:28:31;6.20;99.90
6054;DHT22;3055;50.886;14.814;2023-04-25T03:30:58;6.30;99.90
6054;DHT22;3055;50.886;14.814;2023-04-25T03:33:25;6.30;99.90
6054;DHT22;3055;50.886;14.814;2023-04-25T03:35:52;6.30;99.90
6054;DHT22;3055;50.886;14.814;2023-04-25T03:38:19;6.20;99.90
6054;DHT22;3055;50.886;14.814;2023-04-25T03:40:48;6.20;99.90
6054;DHT22;3055;50.886;14.814;2023-04-25T03:43:16;6.10;99.90
6054;DHT22;3055;50.886;14.814;2023-04-25T03:45:43;6.10;99.90
6054;DHT22;3055;50.886;14.814;2023-04-25T03:48:10;6.00;99.90
6054;DHT22;3055;50.886;14.814;2023-04-25T03:50:37;5.90;99.90
6054;DHT22;3055;50.886;14.814;2023-04-25T03:53:04;5.90;99.90
6054;DHT22;3055;50.886;14.814;2023-04-25T03:55:31;6.00;99.90
6054;DHT22;3055;50.886;14.814;2023-04-25T03:58:00;6.00;99.90
6054;DHT22;3055;50.886;14.814;2023-04-25T04:00:27;5.90;99.90
6054;DHT22;3055;50.886;14.814;2023-04-25T04:02:54;5.90;99.90
6054;DHT22;3055;50.886;14.814;2023-04-25T04:05:21;5.80;99.90
6054;DHT22;3055;50.886;14.814;2023-04-25T04:07:48;5.80;99.90
6054;DHT22;3055;50.886;14.814;2023-04-25T04:10:15;5.80;99.90
6054;DHT22;3055;50.886;14.814;2023-04-25T04:12:42;5.80;99.90
6054;DHT22;3055;50.886;14.814;2023-04-25T04:15:11;5.80;99.90
6054;DHT22;3055;50.886;14.814;2023-04-25T04:17:38;5.80;99.90
6054;DHT22;3055;50.886;14.814;2023-04-25T04:20:07;5.70;99.90
6054;DHT22;3055;50.886;14.814;2023-04-25T04:22:34;5.70;99.90
6054;DHT22;3055;50.886;14.814;2023-04-25T04:25:02;5.70;99.90
6054;DHT22;3055;50.886;14.814;2023-04-25T04:27:31;5.60;99.90
6054;DHT22;3055;50.886;14.814;2023-04-25T04:29:58;5.60;99.90
6054;DHT22;3055;50.886;14.814;2023-04-25T04:32:27;5.60;99.90
6054;DHT22;3055;50.886;14.814;2023-04-25T04:34:56;5.70;99.90
6054;DHT22;3055;50.886;14.814;2023-04-25T04:37:23;5.70;99.90
6054;DHT22;3055;50.886;14.814;2023-04-25T04:39:50;5.90;99.90
6054;DHT22;3055;50.886;14.814;2023-04-25T04:42:17;6.20;99.90
6054;DHT22;3055;50.886;14.814;2023-04-25T04:44:44;6.60;99.90
6054;DHT22;3055;50.886;14.814;2023-04-25T04:47:12;7.00;99.90
6054;DHT22;3055;50.886;14.814;2023-04-25T04:49:41;7.20;99.90
6054;DHT22;3055;50.886;14.814;2023-04-25T04:52:08;7.50;99.90
6054;DHT22;3055;50.886;14.814;2023-04-25T04:54:35;7.80;50.10
6054;DHT22;3055;50.886;14.814;2023-04-25T04:57:02;8.10;99.90
6054;DHT22;3055;50.886;14.814;2023-04-25T04:59:29;8.30;1.00
6054;DHT22;3055;50.886;14.814;2023-04-25T05:01:56;8.40;99.90
6054;DHT22;3055;50.886;14.814;2023-04-25T05:04:23;8.50;99.90
6054;DHT22;3055;50.886;14.814;2023-04-25T05:06:52;8.50;99.90
6054;DHT22;3055;50.886;14.814;2023-04-25T05:09:19;8.60;1.00
6054;DHT22;3055;50.886;14.814;2023-04-25T05:11:46;8.70;1.00
6054;DHT22;3055;50.886;14.814;2023-04-25T05:14:13;8.80;1.00
6054;DHT22;3055;50.886;14.814;2023-04-25T05:16:40;8.80;1.00
6054;DHT22;3055;50.886;14.814;2023-04-25T05:19:07;8.90;1.00
6054;DHT22;3055;50.886;14.814;2023-04-25T05:21:34;9.00;1.00
6054;DHT22;3055;50.886;14.814;2023-04-25T05:24:03;9.10;1.00
6054;DHT22;3055;50.886;14.814;2023-04-25T05:26:30;9.20;1.00
6054;DHT22;3055;50.886;14.814;2023-04-25T05:28:57;9.20;99.90
6054;DHT22;3055;50.886;14.814;2023-04-25T05:31:24;9.20;99.90
6054;DHT22;3055;50.886;14.814;2023-04-25T05:33:51;9.20;99.90
6054;DHT22;3055;50.886;14.814;2023-04-25T05:36:18;9.10;99.90
6054;DHT22;3055;50.886;14.814;2023-04-25T05:38:46;9.00;99.90
6054;DHT22;3055;50.886;14.814;2023-04-25T05:41:14;9.00;99.90
6054;DHT22;3055;50.886;14.814;2023-04-25T05:43:41;8.90;99.90
6054;DHT22;3055;50.886;14.814;2023-04-25T05:46:12;9.00;99.90
6054;DHT22;3055;50.886;14.814;2023-04-25T05:48:39;9.00;99.90
6054;DHT22;3055;50.886;14.814;2023-04-25T05:51:06;9.10;99.90
6054;DHT22;3055;50.886;14.814;2023-04-25T05:53:33;9.10;99.90
6054;DHT22;3055;50.886;14.814;2023-04-25T05:56:00;9.20;99.90
6054;DHT22;3055;50.886;14.814;2023-04-25T05:58:29;9.10;99.90
6054;DHT22;3055;50.886;14.814;2023-04-25T06:00:56;9.20;99.90
6054;DHT22;3055;50.886;14.814;2023-04-25T06:03:23;9.10;99.90
6054;DHT22;3055;50.886;14.814;2023-04-25T06:05:50;9.10;99.90
6054;DHT22;3055;50.886;14.814;2023-04-25T06:08:17;9.20;99.90
6054;DHT22;3055;50.886;14.814;2023-04-25T06:10:45;9.20;99.90
6054;DHT22;3055;50.886;14.814;2023-04-25T06:13:12;9.30;99.90
6054;DHT22;3055;50.886;14.814;2023-04-25T06:15:40;9.40;99.90
6054;DHT22;3055;50.886;14.814;2023-04-25T06:18:07;9.40;99.90
6054;DHT22;3055;50.886;14.814;2023-04-25T06:20:34;9.40;99.90
6054;DHT22;3055;50.886;14.814;2023-04-25T06:23:01;9.50;99.90
6054;DHT22;3055;50.886;14.814;2023-04-25T06:25:28;9.60;99.90
6054;DHT22;3055;50.886;14.814;2023-04-25T06:27:55;9.80;99.90
6054;DHT22;3055;50.886;14.814;2023-04-25T06:30:23;9.90;99.90
6054;DHT22;3055;50.886;14.814;2023-04-25T06:32:52;10.00;99.90
6054;DHT22;3055;50.886;14.814;2023-04-25T06:35:19;10.00;99.90
6054;DHT22;3055;50.886;14.814;2023-04-25T06:37:46;10.20;99.90
6054;DHT22;3055;50.886;14.814;2023-04-25T06:40:13;10.40;99.90
6054;DHT22;3055;50.886;14.814;2023-04-25T06:42:42;10.50;99.90
6054;DHT22;3055;50.886;14.814;2023-04-25T06:45:10;10.70;99.90
6054;DHT22;3055;50.886;14.814;2023-04-25T06:47:37;10.70;99.90
6054;DHT22;3055;50.886;14.814;2023-04-25T06:50:07;10.80;99.90
6054;DHT22;3055;50.886;14.814;2023-04-25T06:52:34;10.80;99.90
6054;DHT22;3055;50.886;14.814;2023-04-25T06:55:01;10.80;99.90
6054;DHT22;3055;50.886;14.814;2023-04-25T06:57:30;10.80;99.90
6054;DHT22;3055;50.886;14.814;2023-04-25T06:59:57;10.90;99.90
6054;DHT22;3055;50.886;14.814;2023-04-25T07:02:24;10.90;99.90
6054;DHT22;3055;50.886;14.814;2023-04-25T07:04:51;10.90;91.20
6054;DHT22;3055;50.886;14.814;2023-04-25T07:07:20;10.90;72.90
6054;DHT22;3055;50.886;14.814;2023-04-25T07:09:47;11.00;76.90
6054;DHT22;3055;50.886;14.814;2023-04-25T07:12:14;11.00;70.20
6054;DHT22;3055;50.886;14.814;2023-04-25T07:14:41;11.00;61.40
6054;DHT22;3055;50.886;14.814;2023-04-25T07:17:08;11.00;54.90
6054;DHT22;3055;50.886;14.814;2023-04-25T07:19:35;11.00;52.40
6054;DHT22;3055;50.886;14.814;2023-04-25T07:22:04;11.00;44.10
6054;DHT22;3055;50.886;14.814;2023-04-25T07:24:32;11.10;37.50
6054;DHT22;3055;50.886;14.814;2023-04-25T07:26:59;11.40;33.70
6054;DHT22;3055;50.886;14.814;2023-04-25T07:29:27;11.90;33.10
6054;DHT22;3055;50.886;14.814;2023-04-25T07:31:54;12.40;10.20
6054;DHT22;3055;50.886;14.814;2023-04-25T07:34:21;12.60;1.00
6054;DHT22;3055;50.886;14.814;2023-04-25T07:36:48;12.60;1.00
6054;DHT22;3055;50.886;14.814;2023-04-25T07:39:16;12.50;1.00
6054;DHT22;3055;50.886;14.814;2023-04-25T07:41:44;12.50;1.00
6054;DHT22;3055;50.886;14.814;2023-04-25T07:44:11;12.50;1.00
6054;DHT22;3055;50.886;14.814;2023-04-25T07:46:38;12.40;1.00
6054;DHT22;3055;50.886;14.814;2023-04-25T07:49:05;12.30;1.00
6054;DHT22;3055;50.886;14.814;2023-04-25T07:51:32;12.30;1.00
6054;DHT22;3055;50.886;14.814;2023-04-25T07:53:59;12.40;1.00
6054;DHT22;3055;50.886;14.814;2023-04-25T07:56:26;12.70;1.00
6054;DHT22;3055;50.886;14.814;2023-04-25T07:58:55;12.80;1.00
6054;DHT22;3055;50.886;14.814;2023-04-25T08:01:22;12.90;1.00
6054;DHT22;3055;50.886;14.814;2023-04-25T08:03:49;13.10;1.00
6054;DHT22;3055;50.886;14.814;2023-04-25T08:06:16;13.10;1.00
6054;DHT22;3055;50.886;14.814;2023-04-25T08:08:44;13.20;1.00
6054;DHT22;3055;50.886;14.814;2023-04-25T08:11:12;13.20;1.00
6054;DHT22;3055;50.886;14.814;2023-04-25T08:13:39;13.20;1.00
6054;DHT22;3055;50.886;14.814;2023-04-25T08:16:07;13.20;1.00
6054;DHT22;3055;50.886;14.814;2023-04-25T08:18:34;13.00;1.00
6054;DHT22;3055;50.886;14.814;2023-04-25T08:21:01;13.10;1.00
6054;DHT22;3055;50.886;14.814;2023-04-25T08:23:28;13.30;1.00
6054;DHT22;3055;50.886;14.814;2023-04-25T08:25:56;13.40;1.00
6054;DHT22;3055;50.886;14.814;2023-04-25T08:28:23;13.30;1.00
6054;DHT22;3055;50.886;14.814;2023-04-25T08:30:50;13.50;1.00
6054;DHT22;3055;50.886;14.814;2023-04-25T08:33:19;13.60;1.00
6054;DHT22;3055;50.886;14.814;2023-04-25T08:35:46;13.40;1.00
6054;DHT22;3055;50.886;14.814;2023-04-25T08:38:13;13.20;1.00
6054;DHT22;3055;50.886;14.814;2023-04-25T08:40:40;13.00;1.00
6054;DHT22;3055;50.886;14.814;2023-04-25T08:43:07;12.80;1.00
6054;DHT22;3055;50.886;14.814;2023-04-25T08:45:38;12.80;1.00
6054;DHT22;3055;50.886;14.814;2023-04-25T08:48:09;12.80;1.00
6054;DHT22;3055;50.886;14.814;2023-04-25T08:50:39;12.70;1.00
6054;DHT22;3055;50.886;14.814;2023-04-25T08:53:09;12.70;1.00
6054;DHT22;3055;50.886;14.814;2023-04-25T08:55:41;12.80;1.00
6054;DHT22;3055;50.886;14.814;2023-04-25T08:58:10;12.90;1.00
6054;DHT22;3055;50.886;14.814;2023-04-25T09:00:39;13.10;1.00
6054;DHT22;3055;50.886;14.814;2023-04-25T09:03:06;13.60;1.00
6054;DHT22;3055;50.886;14.814;2023-04-25T09:05:34;13.90;1.00
6054;DHT22;3055;50.886;14.814;2023-04-25T09:08:03;14.10;1.00
6054;DHT22;3055;50.886;14.814;2023-04-25T09:10:30;14.20;1.00
6054;DHT22;3055;50.886;14.814;2023-04-25T09:13:04;14.50;1.00
6054;DHT22;3055;50.886;14.814;2023-04-25T09:15:32;14.50;1.00
6054;DHT22;3055;50.886;14.814;2023-04-25T09:17:59;14.30;1.00
6054;DHT22;3055;50.886;14.814;2023-04-25T09:20:27;13.90;1.00
6054;DHT22;3055;50.886;14.814;2023-04-25T09:23:05;14.00;1.00
6054;DHT22;3055;50.886;14.814;2023-04-25T09:25:36;14.30;1.00
6054;DHT22;3055;50.886;14.814;2023-04-25T09:28:06;14.50;1.00
6054;DHT22;3055;50.886;14.814;2023-04-25T09:30:34;14.60;1.00
6054;DHT22;3055;50.886;14.814;2023-04-25T09:33:06;15.00;1.00
6054;DHT22;3055;50.886;14.814;2023-04-25T09:35:36;15.20;1.00
6054;DHT22;3055;50.886;14.814;2023-04-25T09:38:09;15.40;1.00
6054;DHT22;3055;50.886;14.814;2023-04-25T09:40:40;15.10;1.00
6054;DHT22;3055;50.886;14.814;2023-04-25T09:43:09;15.00;1.00
6054;DHT22;3055;50.886;14.814;2023-04-25T09:45:43;14.90;1.00
6054;DHT22;3055;50.886;14.814;2023-04-25T09:48:17;14.90;1.00
6054;DHT22;3055;50.886;14.814;2023-04-25T09:50:45;15.30;1.00
6054;DHT22;3055;50.886;14.814;2023-04-25T09:53:13;15.60;1.00
6054;DHT22;3055;50.886;14.814;2023-04-25T09:55:42;15.60;1.00
6054;DHT22;3055;50.886;14.814;2023-04-25T09:58:11;15.60;1.00
6054;DHT22;3055;50.886;14.814;2023-04-25T10:00:38;15.30;1.00
6054;DHT22;3055;50.886;14.814;2023-04-25T10:03:06;14.90;1.00
6054;DHT22;3055;50.886;14.814;2023-04-25T10:05:34;14.60;1.00
6054;DHT22;3055;50.886;14.814;2023-04-25T10:08:03;14.10;1.00
6054;DHT22;3055;50.886;14.814;2023-04-25T10:10:32;14.10;1.00
6054;DHT22;3055;50.886;14.814;2023-04-25T10:13:04;14.20;1.00
6054;DHT22;3055;50.886;14.814;2023-04-25T10:15:34;14.80;1.00
6054;DHT22;3055;50.886;14.814;2023-04-25T10:18:02;15.30;1.00
6054;DHT22;3055;50.886;14.814;2023-04-25T10:20:30;15.50;1.00
6054;DHT22;3055;50.886;14.814;2023-04-25T10:23:03;15.40;1.00
6054;DHT22;3055;50.886;14.814;2023-04-25T10:25:35;15.30;1.00
6054;DHT22;3055;50.886;14.814;2023-04-25T10:28:03;15.40;1.00
6054;DHT22;3055;50.886;14.814;2023-04-25T10:30:30;15.50;1.00
6054;DHT22;3055;50.886;14.814;2023-04-25T10:32:58;15.70;1.00
6054;DHT22;3055;50.886;14.814;2023-04-25T10:35:27;15.60;1.00
6054;DHT22;3055;50.886;14.814;2023-04-25T10:37:58;15.70;1.00
6054;DHT22;3055;50.886;14.814;2023-04-25T10:40:26;15.30;1.00
6054;DHT22;3055;50.886;14.814;2023-04-25T10:42:55;15.30;1.00
6054;DHT22;3055;50.886;14.814;2023-04-25T10:45:22;15.00;1.00
6054;DHT22;3055;50.886;14.814;2023-04-25T10:47:49;15.00;1.00
6054;DHT22;3055;50.886;14.814;2023-04-25T10:50:17;15.00;1.00
6054;DHT22;3055;50.886;14.814;2023-04-25T10:52:44;15.10;1.00
6054;DHT22;3055;50.886;14.814;2023-04-25T10:55:11;15.20;1.00
6054;DHT22;3055;50.886;14.814;2023-04-25T10:57:40;15.20;1.00
6054;DHT22;3055;50.886;14.814;2023-04-25T11:00:12;15.30;1.00
6054;DHT22;3055;50.886;14.814;2023-04-25T11:02:45;15.50;1.00
6054;DHT22;3055;50.886;14.814;2023-04-25T11:05:29;15.80;1.00
6054;DHT22;3055;50.886;14.814;2023-04-25T11:07:58;15.70;1.00
6054;DHT22;3055;50.886;14.814;2023-04-25T11:10:26;15.60;1.00
6054;DHT22;3055;50.886;14.814;2023-04-25T11:12:53;15.20;1.00
6054;DHT22;3055;50.886;14.814;2023-04-25T11:15:22;14.80;1.00
6054;DHT22;3055;50.886;14.814;2023-04-25T11:17:51;14.70;1.00
6054;DHT22;3055;50.886;14.814;2023-04-25T11:20:18;14.60;1.00
6054;DHT22;3055;50.886;14.814;2023-04-25T11:22:46;14.80;1.00
6054;DHT22;3055;50.886;14.814;2023-04-25T11:25:15;15.00;1.00
6054;DHT22;3055;50.886;14.814;2023-04-25T11:27:51;14.90;1.00
6054;DHT22;3055;50.886;14.814;2023-04-25T11:30:19;14.60;1.00
6054;DHT22;3055;50.886;14.814;2023-04-25T11:32:48;14.50;1.00
6054;DHT22;3055;50.886;14.814;2023-04-25T11:35:15;14.30;1.00
6054;DHT22;3055;50.886;14.814;2023-04-25T11:37:43;14.20;1.00
6054;DHT22;3055;50.886;14.814;2023-04-25T11:40:11;14.00;1.00
6054;DHT22;3055;50.886;14.814;2023-04-25T11:42:38;13.80;1.00
6054;DHT22;3055;50.886;14.814;2023-04-25T11:45:06;13.40;1.00
6054;DHT22;3055;50.886;14.814;2023-04-25T11:47:35;13.30;1.00
6054;DHT22;3055;50.886;14.814;2023-04-25T11:50:05;13.20;1.00
6054;DHT22;3055;50.886;14.814;2023-04-25T11:52:37;13.40;1.00
6054;DHT22;3055;50.886;14.814;2023-04-25T11:55:05;13.60;1.00
6054;DHT22;3055;50.886;14.814;2023-04-25T11:57:33;13.80;1.00
6054;DHT22;3055;50.886;14.814;2023-04-25T12:00:08;14.00;1.00
6054;DHT22;3055;50.886;14.814;2023-04-25T12:02:36;14.10;1.00
6054;DHT22;3055;50.886;14.814;2023-04-25T12:05:08;14.40;1.00
6054;DHT22;3055;50.886;14.814;2023-04-25T12:07:35;14.60;1.00
6054;DHT22;3055;50.886;14.814;2023-04-25T12:10:07;14.60;1.00
6054;DHT22;3055;50.886;14.814;2023-04-25T12:12:35;14.80;1.00
6054;DHT22;3055;50.886;14.814;2023-04-25T12:15:15;14.70;1.00
6054;DHT22;3055;50.886;14.814;2023-04-25T12:17:45;14.70;1.00
6054;DHT22;3055;50.886;14.814;2023-04-25T12:20:16;14.50;1.00
6054;DHT22;3055;50.886;14.814;2023-04-25T12:22:44;14.20;1.00
6054;DHT22;3055;50.886;14.814;2023-04-25T12:25:12;14.00;1.00
6054;DHT22;3055;50.886;14.814;2023-04-25T12:27:40;14.10;1.00
6054;DHT22;3055;50.886;14.814;2023-04-25T12:30:08;14.40;1.00
6054;DHT22;3055;50.886;14.814;2023-04-25T12:32:36;14.50;1.00
6054;DHT22;3055;50.886;14.814;2023-04-25T12:37:33;14.50;1.00
6054;DHT22;3055;50.886;14.814;2023-04-25T12:40:00;14.20;1.00
6054;DHT22;3055;50.886;14.814;2023-04-25T12:42:29;14.20;1.00
6054;DHT22;3055;50.886;14.814;2023-04-25T12:44:56;13.90;1.00
6054;DHT22;3055;50.886;14.814;2023-04-25T12:47:23;13.70;1.00
6054;DHT22;3055;50.886;14.814;2023-04-25T12:49:50;13.60;1.00
6054;DHT22;3055;50.886;14.814;2023-04-25T12:52:18;13.50;1.00
6054;DHT22;3055;50.886;14.814;2023-04-25T12:54:46;13.50;1.00
6054;DHT22;3055;50.886;14.814;2023-04-25T12:57:13;13.40;1.00
6054;DHT22;3055;50.886;14.814;2023-04-25T12:59:40;13.50;1.00
6054;DHT22;3055;50.886;14.814;2023-04-25T13:02:07;13.90;1.00
6054;DHT22;3055;50.886;14.814;2023-04-25T13:04:34;14.40;1.00
6054;DHT22;3055;50.886;14.814;2023-04-25T13:07:01;14.90;1.00
6054;DHT22;3055;50.886;14.814;2023-04-25T13:09:29;15.00;1.00
6054;DHT22;3055;50.886;14.814;2023-04-25T13:11:57;14.70;1.00
6054;DHT22;3055;50.886;14.814;2023-04-25T13:14:24;14.30;1.00
6054;DHT22;3055;50.886;14.814;2023-04-25T13:16:51;13.80;1.00
6054;DHT22;3055;50.886;14.814;2023-04-25T13:19:20;13.40;1.00
6054;DHT22;3055;50.886;14.814;2023-04-25T13:21:47;12.90;1.00
6054;DHT22;3055;50.886;14.814;2023-04-25T13:24:14;12.60;1.00
6054;DHT22;3055;50.886;14.814;2023-04-25T13:26:41;12.40;1.00
6054;DHT22;3055;50.886;14.814;2023-04-25T13:29:09;12.20;1.00
6054;DHT22;3055;50.886;14.814;2023-04-25T13:31:36;12.10;1.00
6054;DHT22;3055;50.886;14.814;2023-04-25T13:34:03;11.90;1.00
6054;DHT22;3055;50.886;14.814;2023-04-25T13:36:30;11.90;1.00
6054;DHT22;3055;50.886;14.814;2023-04-25T13:38:58;12.00;1.00
6054;DHT22;3055;50.886;14.814;2023-04-25T13:41:25;12.20;1.00
6054;DHT22;3055;50.886;14.814;2023-04-25T13:43:52;12.40;1.00
6054;DHT22;3055;50.886;14.814;2023-04-25T13:46:20;12.40;1.00
6054;DHT22;3055;50.886;14.814;2023-04-25T13:48:48;12.50;1.00
6054;DHT22;3055;50.886;14.814;2023-04-25T13:51:16;12.50;1.00
6054;DHT22;3055;50.886;14.814;2023-04-25T13:53:43;12.50;1.00
6054;DHT22;3055;50.886;14.814;2023-04-25T13:56:11;12.50;1.00
6054;DHT22;3055;50.886;14.814;2023-04-25T13:58:38;12.40;1.00
6054;DHT22;3055;50.886;14.814;2023-04-25T14:01:05;12.50;1.00
6054;DHT22;3055;50.886;14.814;2023-04-25T14:03:34;12.30;1.00
6054;DHT22;3055;50.886;14.814;2023-04-25T14:06:01;12.40;1.00
6054;DHT22;3055;50.886;14.814;2023-04-25T14:08:30;12.40;1.00
6054;DHT22;3055;50.886;14.814;2023-04-25T14:10:57;12.30;1.00
6054;DHT22;3055;50.886;14.814;2023-04-25T14:13:24;12.20;1.00
6054;DHT22;3055;50.886;14.814;2023-04-25T14:15:51;12.30;1.00
6054;DHT22;3055;50.886;14.814;2023-04-25T14:18:18;12.50;1.00
6054;DHT22;3055;50.886;14.814;2023-04-25T14:20:47;12.80;1.00
6054;DHT22;3055;50.886;14.814;2023-04-25T14:23:14;13.50;1.00
6054;DHT22;3055;50.886;14.814;2023-04-25T14:25:43;14.20;1.00
6054;DHT22;3055;50.886;14.814;2023-04-25T14:28:10;14.20;1.00
6054;DHT22;3055;50.886;14.814;2023-04-25T14:30:37;14.00;1.00
6054;DHT22;3055;50.886;14.814;2023-04-25T14:33:04;13.70;1.00
6054;DHT22;3055;50.886;14.814;2023-04-25T14:35:31;13.50;1.00
6054;DHT22;3055;50.886;14.814;2023-04-25T14:38:00;13.60;1.00
6054;DHT22;3055;50.886;14.814;2023-04-25T14:40:27;13.60;1.00
6054;DHT22;3055;50.886;14.814;2023-04-25T14:42:54;13.30;1.00
6054;DHT22;3055;50.886;14.814;2023-04-25T14:45:21;13.20;1.00
6054;DHT22;3055;50.886;14.814;2023-04-25T14:47:48;12.90;1.00
6054;DHT22;3055;50.886;14.814;2023-04-25T14:50:17;12.80;1.00
6054;DHT22;3055;50.886;14.814;2023-04-25T14:52:44;12.60;1.00
6054;DHT22;3055;50.886;14.814;2023-04-25T14:55:13;12.30;1.00
6054;DHT22;3055;50.886;14.814;2023-04-25T14:57:40;12.10;1.00
6054;DHT22;3055;50.886;14.814;2023-04-25T15:00:08;12.20;1.00
6054;DHT22;3055;50.886;14.814;2023-04-25T15:02:36;12.40;1.00
6054;DHT22;3055;50.886;14.814;2023-04-25T15:05:04;12.90;1.00
6054;DHT22;3055;50.886;14.814;2023-04-25T15:07:31;13.10;1.00
6054;DHT22;3055;50.886;14.814;2023-04-25T15:10:00;13.00;1.00
6054;DHT22;3055;50.886;14.814;2023-04-25T15:12:29;12.70;1.00
6054;DHT22;3055;50.886;14.814;2023-04-25T15:14:56;12.40;1.00
6054;DHT22;3055;50.886;14.814;2023-04-25T15:17:23;12.00;1.00
6054;DHT22;3055;50.886;14.814;2023-04-25T15:19:51;11.70;1.00
6054;DHT22;3055;50.886;14.814;2023-04-25T15:22:20;11.50;1.00
6054;DHT22;3055;50.886;14.814;2023-04-25T15:24:47;11.40;1.00
6054;DHT22;3055;50.886;14.814;2023-04-25T15:27:14;11.30;1.00
6054;DHT22;3055;50.886;14.814;2023-04-25T15:29:42;11.40;1.00
6054;DHT22;3055;50.886;14.814;2023-04-25T15:32:09;11.40;1.00
6054;DHT22;3055;50.886;14.814;2023-04-25T15:34:36;11.30;1.00
6054;DHT22;3055;50.886;14.814;2023-04-25T15:37:03;11.20;1.00
6054;DHT22;3055;50.886;14.814;2023-04-25T15:39:31;11.10;1.00
6054;DHT22;3055;50.886;14.814;2023-04-25T15:41:58;11.10;1.00
6054;DHT22;3055;50.886;14.814;2023-04-25T15:44:26;11.10;1.00
6054;DHT22;3055;50.886;14.814;2023-04-25T15:46:55;11.00;1.00
6054;DHT22;3055;50.886;14.814;2023-04-25T15:49:22;10.80;1.00
6054;DHT22;3055;50.886;14.814;2023-04-25T15:51:49;10.70;1.00
6054;DHT22;3055;50.886;14.814;2023-04-25T15:54:17;10.60;1.00
6054;DHT22;3055;50.886;14.814;2023-04-25T15:56:44;10.40;1.00
6054;DHT22;3055;50.886;14.814;2023-04-25T15:59:12;10.40;1.00
6054;DHT22;3055;50.886;14.814;2023-04-25T16:01:39;10.40;1.00
6054;DHT22;3055;50.886;14.814;2023-04-25T16:04:07;10.50;1.00
6054;DHT22;3055;50.886;14.814;2023-04-25T16:06:34;10.50;1.00
6054;DHT22;3055;50.886;14.814;2023-04-25T16:09:03;10.50;1.00